Mekhanik Banatov — UABI — position and weather

sailwx.info

Track history (hours):
 
Tides and Currents Weather Stations Pressure Air Temp Water Temp Dewpoint Dewpoint Depression Visibility Wind Speed Wind Dir Waves Ship Positions

Mekhanik Banatov

Last reported at 2017-Sep-07 17:55 UTC. Time now 2017-Sep-25 20:34 UTC.
Position N 45°29' E 036°43'.
Warning: this ship's position is 18 days out of date.

Length 132 m; draft 2.8 m.

Type: Tanker. MMSI: 273272100.

Date/timePositionNaut miles runAvg speedWind from/ knotsBaromVisibWave heightAir tempDewpointWater temp
2017-Sep-07 17:55N 45°29' E 036°43'4 8.5
2017-Sep-07 17:30N 45°25' E 036°41'4 8.0
2017-Sep-07 17:00N 45°22' E 036°40'4 8.7
2017-Sep-07 16:31N 45°20' E 036°34'4 8.1
2017-Sep-07 15:57N 45°17' E 036°29'4 6.5
2017-Sep-07 15:24N 45°14' E 036°29'3 1.9
2017-Sep-07 13:45N 45°11' E 036°30'5 0.5
2017-Sep-07 03:47N 45°07' E 036°35'10 3.0
2017-Sep-07 00:37N 45°15' E 036°28'1 5.7
2017-Sep-07 00:29N 45°16' E 036°28'3 5.9
2017-Sep-07 00:00N 45°19' E 036°30'3 6.1
2017-Sep-06 23:30N 45°19' E 036°35'3 5.9
2017-Sep-06 23:00N 45°20' E 036°38'3 5.5
2017-Sep-06 22:30N 45°23' E 036°41'1 2.4
2017-Sep-06 21:58N 45°23' E 036°42'0 0.1
2017-Sep-06 21:30N 45°23' E 036°42'0 0.6
2017-Sep-06 21:00N 45°23' E 036°42'3 5.2
2017-Sep-06 20:30N 45°26' E 036°41'3 6.4
2017-Sep-06 20:00N 45°28' E 036°45'  
Track history (hours):
 
Tides and Currents Weather Stations Pressure Air Temp Water Temp Dewpoint Dewpoint Depression Visibility Wind Speed Wind Dir Waves Ship Positions

Mekhanik Banatov

Last reported at 2017-Sep-07 17:55 UTC. Time now 2017-Sep-25 20:34 UTC.
Position N 45°29' E 036°43'.
Warning: this ship's position is 18 days out of date.

Length 132 m; draft 2.8 m.

Type: Tanker. MMSI: 273272100.

Date/timePositionNaut miles runAvg speedWind from/ knotsBaromVisibWave heightAir tempDewpointWater temp
2017-Sep-07 17:55N 45°29' E 036°43'4 8.5
2017-Sep-07 17:30N 45°25' E 036°41'4 8.0
2017-Sep-07 17:00N 45°22' E 036°40'4 8.7
2017-Sep-07 16:31N 45°20' E 036°34'4 8.1
2017-Sep-07 15:57N 45°17' E 036°29'4 6.5
2017-Sep-07 15:24N 45°14' E 036°29'3 1.9
2017-Sep-07 13:45N 45°11' E 036°30'5 0.5
2017-Sep-07 03:47N 45°07' E 036°35'10 3.0
2017-Sep-07 00:37N 45°15' E 036°28'1 5.7
2017-Sep-07 00:29N 45°16' E 036°28'3 5.9
2017-Sep-07 00:00N 45°19' E 036°30'3 6.1
2017-Sep-06 23:30N 45°19' E 036°35'3 5.9
2017-Sep-06 23:00N 45°20' E 036°38'3 5.5
2017-Sep-06 22:30N 45°23' E 036°41'1 2.4
2017-Sep-06 21:58N 45°23' E 036°42'0 0.1
2017-Sep-06 21:30N 45°23' E 036°42'0 0.6
2017-Sep-06 21:00N 45°23' E 036°42'3 5.2
2017-Sep-06 20:30N 45°26' E 036°41'3 6.4
2017-Sep-06 20:00N 45°28' E 036°45'  

Dump ship's entire track history